createdAt,value
2019-06-15T00:03:41.162Z,25.19
2019-06-15T00:08:46.329Z,25.22
2019-06-15T00:13:51.367Z,25.17
2019-06-15T00:18:56.477Z,25.17
2019-06-15T00:24:01.880Z,25.11
2019-06-15T00:29:07.398Z,25.02
2019-06-15T00:34:12.516Z,24.97
2019-06-15T00:39:17.634Z,24.97
2019-06-15T00:44:22.842Z,24.97
2019-06-15T00:49:28.271Z,24.92
2019-06-15T00:54:33.308Z,24.76
2019-06-15T00:59:38.447Z,24.62
2019-06-15T01:04:43.548Z,24.59
2019-06-15T01:09:49.764Z,24.51
2019-06-15T01:14:55.214Z,24.48
2019-06-15T01:20:01.368Z,24.47
2019-06-15T01:25:07.843Z,24.37
2019-06-15T01:30:13.116Z,24.28
2019-06-15T01:35:18.568Z,24.28
2019-06-15T01:40:23.716Z,24.21
2019-06-15T01:45:28.773Z,24.20
2019-06-15T01:50:33.823Z,24.25
2019-06-15T01:55:39.169Z,24.35
2019-06-15T02:00:44.243Z,24.48
2019-06-15T02:05:49.347Z,24.58
2019-06-15T02:10:54.490Z,24.64
2019-06-15T02:16:02.276Z,24.71
2019-06-15T02:21:07.447Z,24.75
2019-06-15T02:26:12.888Z,24.75
2019-06-15T02:31:17.935Z,24.73
2019-06-15T02:36:23.035Z,24.75
2019-06-15T02:41:28.065Z,24.75
2019-06-15T02:46:33.122Z,24.71
2019-06-15T02:51:38.733Z,24.68
2019-06-15T02:56:46.818Z,24.57
2019-06-15T03:01:51.935Z,24.51
2019-06-15T03:06:57.008Z,24.50
2019-06-15T03:12:02.357Z,24.45
2019-06-15T03:17:07.464Z,24.34
2019-06-15T03:22:12.557Z,24.23
2019-06-15T03:27:17.745Z,24.18
2019-06-15T03:32:22.865Z,24.14
2019-06-15T03:37:27.985Z,24.08
2019-06-15T03:42:33.049Z,24.02
2019-06-15T03:47:38.137Z,24.01
2019-06-15T03:52:43.293Z,23.96
2019-06-15T03:57:48.409Z,23.94
2019-06-15T04:02:53.472Z,23.90
2019-06-15T04:07:58.547Z,23.86
2019-06-15T04:13:03.677Z,23.89
2019-06-15T04:18:08.742Z,23.91
2019-06-15T04:23:13.875Z,23.91
2019-06-15T04:28:19.030Z,23.88
2019-06-15T04:33:24.074Z,23.84
2019-06-15T04:38:29.080Z,23.89
2019-06-15T04:43:34.209Z,23.93
2019-06-15T04:48:39.630Z,24.00
2019-06-15T04:53:44.729Z,24.07
2019-06-15T04:58:50.081Z,24.06
2019-06-15T05:03:55.154Z,24.05
2019-06-15T05:09:00.317Z,24.05
2019-06-15T05:14:06.157Z,24.05
2019-06-15T05:19:11.174Z,24.04
2019-06-15T05:24:16.286Z,24.05
2019-06-15T05:29:21.385Z,24.06
2019-06-15T05:34:26.420Z,24.11
2019-06-15T05:39:31.499Z,24.18
2019-06-15T05:44:36.579Z,24.24
2019-06-15T05:49:41.649Z,24.30
2019-06-15T05:54:49.044Z,24.36
2019-06-15T05:59:54.217Z,24.45
2019-06-15T06:04:59.429Z,24.53
2019-06-15T06:10:05.060Z,24.53
2019-06-15T06:15:10.544Z,24.59
2019-06-15T06:20:16.037Z,24.57
2019-06-15T06:25:21.106Z,24.62
2019-06-15T06:30:26.152Z,24.61
2019-06-15T06:35:31.230Z,24.64
2019-06-15T06:40:36.284Z,24.66
2019-06-15T06:45:41.351Z,24.69
2019-06-15T06:50:46.473Z,24.91
2019-06-15T06:55:51.556Z,24.91
2019-06-15T07:00:56.591Z,24.93
2019-06-15T07:06:01.633Z,24.98
2019-06-15T07:11:07.473Z,25.11
2019-06-15T07:16:12.585Z,25.19
2019-06-15T07:21:18.011Z,25.20
2019-06-15T07:26:23.207Z,25.37
2019-06-15T07:31:28.515Z,25.37
2019-06-15T07:36:33.894Z,25.61
2019-06-15T07:41:39.016Z,25.63
2019-06-15T07:46:44.092Z,25.76
2019-06-15T07:51:49.484Z,25.98
2019-06-15T07:56:54.555Z,26.18
2019-06-15T08:01:59.735Z,26.39
2019-06-15T08:07:04.875Z,26.47
2019-06-15T08:12:10.871Z,26.66
2019-06-15T08:17:16.006Z,26.83
2019-06-15T08:22:21.342Z,27.04
2019-06-15T08:27:26.851Z,27.24
2019-06-15T08:32:31.893Z,27.38
2019-06-15T08:37:36.943Z,27.37
2019-06-15T08:42:41.983Z,27.64
2019-06-15T08:47:47.050Z,27.80
2019-06-15T08:52:52.159Z,28.03
2019-06-15T08:57:57.244Z,28.15
2019-06-15T09:03:02.337Z,28.44
2019-06-15T09:08:07.471Z,28.62
2019-06-15T09:13:12.805Z,28.71
2019-06-15T09:18:18.098Z,28.80
2019-06-15T09:23:23.327Z,28.94
2019-06-15T09:28:33.626Z,29.04
2019-06-15T09:33:38.707Z,28.97
2019-06-15T09:38:44.481Z,29.14
2019-06-15T09:43:49.629Z,29.10
2019-06-15T09:48:54.727Z,29.21
2019-06-15T09:53:59.806Z,29.38
2019-06-15T09:59:04.866Z,29.45
2019-06-15T10:04:09.960Z,29.56
2019-06-15T10:09:15.091Z,29.86
2019-06-15T10:14:20.193Z,30.15
2019-06-15T10:19:56.267Z,30.47
2019-06-15T10:25:01.424Z,30.61
2019-06-15T10:30:07.657Z,30.73
2019-06-15T10:35:12.862Z,30.80
2019-06-15T10:40:18.725Z,30.88
2019-06-15T10:45:24.195Z,30.74
2019-06-15T10:50:29.362Z,30.68
2019-06-15T10:55:34.610Z,30.71
2019-06-15T11:00:40.350Z,30.64
2019-06-15T11:05:45.838Z,30.53
2019-06-15T11:11:21.622Z,31.03
2019-06-15T11:16:25.749Z,30.89
2019-06-15T11:21:30.842Z,30.73
2019-06-15T11:26:36.147Z,30.85
2019-06-15T11:31:41.707Z,30.41
2019-06-15T11:36:47.404Z,30.36
2019-06-15T11:41:53.299Z,30.23
2019-06-15T11:46:58.859Z,30.16
2019-06-15T11:52:04.397Z,30.37
2019-06-15T11:57:09.502Z,30.57
2019-06-15T12:02:14.677Z,30.78
2019-06-15T12:07:19.967Z,30.15
2019-06-15T12:12:25.028Z,29.77
2019-06-15T12:17:30.256Z,29.82
2019-06-15T12:22:35.478Z,30.15
2019-06-15T12:27:40.650Z,30.61
2019-06-15T12:32:45.799Z,31.16
2019-06-15T12:37:51.881Z,31.50
2019-06-15T12:42:56.963Z,31.35
2019-06-15T12:48:03.294Z,31.57
2019-06-15T12:53:09.632Z,31.83
2019-06-15T12:58:15.179Z,31.61
2019-06-15T13:03:20.294Z,31.59
2019-06-15T13:08:25.569Z,31.70
2019-06-15T13:13:31.104Z,32.16
2019-06-15T13:18:36.292Z,31.92
2019-06-15T13:23:43.535Z,32.04
2019-06-15T13:28:51.137Z,31.76
2019-06-15T13:33:55.491Z,31.80
2019-06-15T13:39:00.709Z,31.87
2019-06-15T13:44:07.546Z,31.58
2019-06-15T13:49:12.682Z,31.56
2019-06-15T13:54:18.635Z,31.37
2019-06-15T13:59:26.516Z,31.58
2019-06-15T14:04:31.748Z,31.71
2019-06-15T14:09:42.313Z,31.51
2019-06-15T14:14:54.066Z,31.39
2019-06-15T14:19:59.441Z,31.19
2019-06-15T14:25:07.175Z,31.45
2019-06-15T14:30:12.802Z,31.59
2019-06-15T14:35:18.102Z,31.50
2019-06-15T14:40:23.605Z,31.68
2019-06-15T14:45:28.844Z,31.40
2019-06-15T14:50:34.044Z,31.26
2019-06-15T14:55:39.225Z,31.61
2019-06-15T15:00:46.670Z,31.34
2019-06-15T15:05:51.703Z,31.23
2019-06-15T15:10:57.202Z,31.17
2019-06-15T15:16:02.402Z,30.82
2019-06-15T15:21:07.561Z,30.17
2019-06-15T15:26:12.973Z,29.79
2019-06-15T15:31:18.067Z,29.75
2019-06-15T15:36:26.307Z,29.75
2019-06-15T15:41:30.893Z,29.38
2019-06-15T15:46:36.477Z,29.35
2019-06-15T15:51:41.880Z,29.24
2019-06-15T15:56:47.127Z,29.12
2019-06-15T16:01:52.760Z,29.06
2019-06-15T16:06:58.109Z,29.31
2019-06-15T16:12:03.182Z,29.20
2019-06-15T16:17:08.302Z,29.07
2019-06-15T16:22:13.435Z,28.97
2019-06-15T16:27:18.650Z,28.81
2019-06-15T16:32:26.228Z,28.75
2019-06-15T16:37:31.038Z,28.72
2019-06-15T16:42:36.693Z,28.67
2019-06-15T16:47:43.442Z,28.60
2019-06-15T16:52:48.600Z,28.51
2019-06-15T16:57:56.648Z,28.23
2019-06-15T17:03:17.476Z,28.23
2019-06-15T17:08:09.377Z,28.08
2019-06-15T17:13:16.050Z,28.12
2019-06-15T17:18:23.456Z,28.02
2019-06-15T17:23:28.509Z,28.01
2019-06-15T17:28:36.993Z,28.05
2019-06-15T17:33:41.888Z,28.00
2019-06-15T17:38:46.934Z,27.91
2019-06-15T17:43:52.429Z,27.86
2019-06-15T17:48:57.653Z,27.75
2019-06-15T17:54:06.641Z,27.81
2019-06-15T17:59:11.870Z,27.77
2019-06-15T18:04:18.295Z,27.45
2019-06-15T18:09:25.778Z,27.36
2019-06-15T18:14:30.623Z,27.32
2019-06-15T18:19:36.965Z,27.15
2019-06-15T18:24:42.222Z,27.14
2019-06-15T18:29:47.671Z,26.92
2019-06-15T18:34:52.857Z,26.79
2019-06-15T18:39:58.072Z,26.73
2019-06-15T18:45:03.209Z,26.64
2019-06-15T18:50:11.293Z,26.51
2019-06-15T18:55:16.710Z,26.42
2019-06-15T19:00:21.817Z,26.36
2019-06-15T19:05:27.090Z,26.30
2019-06-15T19:10:33.318Z,26.27
2019-06-15T19:15:38.392Z,26.13
2019-06-15T19:20:43.923Z,25.99
2019-06-15T19:25:48.965Z,25.88
2019-06-15T19:30:56.142Z,25.69
2019-06-15T19:36:01.628Z,25.70
2019-06-15T19:41:07.125Z,25.57
2019-06-15T19:46:12.462Z,25.38
2019-06-15T19:51:17.641Z,25.18
2019-06-15T19:56:22.908Z,25.18
2019-06-15T20:01:28.864Z,25.01
2019-06-15T20:06:36.874Z,25.01
2019-06-15T20:11:41.838Z,24.96
2019-06-15T20:16:47.194Z,25.00
2019-06-15T20:21:52.263Z,24.97
2019-06-15T20:26:58.593Z,24.84
2019-06-15T20:32:06.656Z,24.74
2019-06-15T20:37:11.318Z,24.68
2019-06-15T20:42:16.639Z,24.64
2019-06-15T20:47:21.894Z,24.56
2019-06-15T20:52:27.051Z,24.56
2019-06-15T20:57:32.281Z,24.60
2019-06-15T21:02:37.855Z,24.67
2019-06-15T21:07:43.261Z,24.50
2019-06-15T21:12:48.369Z,24.36
2019-06-15T21:17:53.511Z,24.30
2019-06-15T21:22:58.580Z,24.29
2019-06-15T21:28:06.456Z,24.25
2019-06-15T21:33:11.601Z,24.18
2019-06-15T21:38:16.679Z,24.13
2019-06-15T21:43:21.858Z,24.03
2019-06-15T21:48:28.194Z,24.00
2019-06-15T21:53:33.370Z,23.91
2019-06-15T21:58:38.601Z,23.77
2019-06-15T22:03:46.319Z,23.66
2019-06-15T22:08:51.562Z,23.55
2019-06-15T22:13:57.693Z,23.42
2019-06-15T22:19:02.988Z,23.32
2019-06-15T22:24:08.101Z,23.23
2019-06-15T22:29:16.590Z,23.15
2019-06-15T22:34:20.861Z,23.08
2019-06-15T22:39:26.899Z,22.96
2019-06-15T22:44:32.190Z,22.89
2019-06-15T22:49:37.424Z,22.89
2019-06-15T22:54:42.780Z,22.79
2019-06-15T22:59:48.273Z,22.75
2019-06-15T23:04:53.256Z,22.79
2019-06-15T23:09:58.297Z,22.81
2019-06-15T23:15:07.079Z,22.80
2019-06-15T23:20:11.433Z,22.77
2019-06-15T23:25:16.943Z,22.77
2019-06-15T23:30:22.243Z,22.77
2019-06-15T23:35:32.322Z,22.76
2019-06-15T23:40:37.468Z,22.68
2019-06-15T23:45:42.522Z,22.61
2019-06-15T23:50:47.638Z,22.59
2019-06-15T23:55:53.494Z,22.49
